ΕΜΥ, Εθνική Μετεωρολογική Υπηρεσία - Δελτία Καιρού, Προγνώσεις

ΑΕΡΟΝΑΥΤΙΛΙΑ

GREEK AIRPORTS CODES

TAF LGTS 061700Z 0618/0718 34015KT 9999 SCT030 PROB40 TEMPO 0618/0718 7000 SHRA FEW020TCU SCT025 TEMPO 0618/0706 3000 TSRA FEW018CB BKN020=

EUROPEAN AIRPORTS CODES